sensor_id;sensor_type;location;lat;lon;timestamp;temperature;humidity
35645;DHT22;21764;52.042;6.830;2023-08-31T00:02:19;13.40;99.90
35645;DHT22;21764;52.042;6.830;2023-08-31T00:07:21;13.30;99.90
35645;DHT22;21764;52.042;6.830;2023-08-31T00:12:22;13.10;99.90
35645;DHT22;21764;52.042;6.830;2023-08-31T00:17:22;12.90;99.90
35645;DHT22;21764;52.042;6.830;2023-08-31T00:22:23;12.80;99.90
35645;DHT22;21764;52.042;6.830;2023-08-31T00:27:24;12.80;99.90
35645;DHT22;21764;52.042;6.830;2023-08-31T00:32:25;12.80;99.90
35645;DHT22;21764;52.042;6.830;2023-08-31T00:37:25;12.90;99.90
35645;DHT22;21764;52.042;6.830;2023-08-31T00:42:26;13.00;99.90
35645;DHT22;21764;52.042;6.830;2023-08-31T00:47:30;12.90;99.90
35645;DHT22;21764;52.042;6.830;2023-08-31T00:52:30;12.90;99.90
35645;DHT22;21764;52.042;6.830;2023-08-31T00:57:31;12.80;99.90
35645;DHT22;21764;52.042;6.830;2023-08-31T01:13:29;12.20;99.90
35645;DHT22;21764;52.042;6.830;2023-08-31T01:18:32;12.10;99.90
35645;DHT22;21764;52.042;6.830;2023-08-31T01:23:49;12.00;99.90
35645;DHT22;21764;52.042;6.830;2023-08-31T01:28:51;11.90;99.90
35645;DHT22;21764;52.042;6.830;2023-08-31T01:33:52;11.80;99.90
35645;DHT22;21764;52.042;6.830;2023-08-31T01:39:01;11.70;99.90
35645;DHT22;21764;52.042;6.830;2023-08-31T01:44:04;11.60;99.90
35645;DHT22;21764;52.042;6.830;2023-08-31T01:49:06;11.60;99.90
35645;DHT22;21764;52.042;6.830;2023-08-31T01:54:07;11.50;99.90
35645;DHT22;21764;52.042;6.830;2023-08-31T01:59:08;11.50;99.90
35645;DHT22;21764;52.042;6.830;2023-08-31T02:04:08;11.60;99.90
35645;DHT22;21764;52.042;6.830;2023-08-31T02:09:09;11.70;99.90
35645;DHT22;21764;52.042;6.830;2023-08-31T02:14:10;11.80;99.90
35645;DHT22;21764;52.042;6.830;2023-08-31T02:19:10;11.90;99.90
35645;DHT22;21764;52.042;6.830;2023-08-31T02:24:11;12.10;99.90
35645;DHT22;21764;52.042;6.830;2023-08-31T02:29:13;12.10;99.90
35645;DHT22;21764;52.042;6.830;2023-08-31T02:34:14;12.10;99.90
35645;DHT22;21764;52.042;6.830;2023-08-31T02:39:14;12.10;99.90
35645;DHT22;21764;52.042;6.830;2023-08-31T02:44:17;11.90;99.90
35645;DHT22;21764;52.042;6.830;2023-08-31T02:49:18;11.70;99.90
35645;DHT22;21764;52.042;6.830;2023-08-31T02:54:19;11.50;99.90
35645;DHT22;21764;52.042;6.830;2023-08-31T02:59:19;11.40;99.90
35645;DHT22;21764;52.042;6.830;2023-08-31T03:04:20;11.40;99.90
35645;DHT22;21764;52.042;6.830;2023-08-31T03:09:21;11.50;99.90
35645;DHT22;21764;52.042;6.830;2023-08-31T03:14:22;11.60;99.90
35645;DHT22;21764;52.042;6.830;2023-08-31T03:19:23;11.80;99.90
35645;DHT22;21764;52.042;6.830;2023-08-31T03:24:24;12.00;99.90
35645;DHT22;21764;52.042;6.830;2023-08-31T03:29:24;12.30;99.90
35645;DHT22;21764;52.042;6.830;2023-08-31T03:34:29;12.30;99.90
35645;DHT22;21764;52.042;6.830;2023-08-31T03:39:30;12.30;99.90
35645;DHT22;21764;52.042;6.830;2023-08-31T03:44:31;12.10;99.90
35645;DHT22;21764;52.042;6.830;2023-08-31T03:49:32;12.00;99.90
35645;DHT22;21764;52.042;6.830;2023-08-31T03:54:33;12.00;99.90
35645;DHT22;21764;52.042;6.830;2023-08-31T03:59:34;12.10;99.90
35645;DHT22;21764;52.042;6.830;2023-08-31T04:04:35;12.00;99.90
35645;DHT22;21764;52.042;6.830;2023-08-31T04:09:35;11.90;99.90
35645;DHT22;21764;52.042;6.830;2023-08-31T04:14:36;11.90;99.90
35645;DHT22;21764;52.042;6.830;2023-08-31T04:19:37;12.10;99.90
35645;DHT22;21764;52.042;6.830;2023-08-31T04:24:38;12.10;99.90
35645;DHT22;21764;52.042;6.830;2023-08-31T04:29:38;12.20;99.90
35645;DHT22;21764;52.042;6.830;2023-08-31T04:34:39;12.30;99.90
35645;DHT22;21764;52.042;6.830;2023-08-31T04:39:40;12.30;99.90
35645;DHT22;21764;52.042;6.830;2023-08-31T04:44:41;12.40;99.90
35645;DHT22;21764;52.042;6.830;2023-08-31T04:49:41;12.40;99.90
35645;DHT22;21764;52.042;6.830;2023-08-31T04:54:43;12.30;99.90
35645;DHT22;21764;52.042;6.830;2023-08-31T04:59:43;12.40;99.90
35645;DHT22;21764;52.042;6.830;2023-08-31T05:04:44;12.40;99.90
35645;DHT22;21764;52.042;6.830;2023-08-31T05:09:47;12.40;99.90
35645;DHT22;21764;52.042;6.830;2023-08-31T05:14:50;12.40;99.90
35645;DHT22;21764;52.042;6.830;2023-08-31T05:19:51;12.50;99.90
35645;DHT22;21764;52.042;6.830;2023-08-31T05:24:52;12.60;99.90
35645;DHT22;21764;52.042;6.830;2023-08-31T05:29:52;13.00;99.90
35645;DHT22;21764;52.042;6.830;2023-08-31T05:34:53;14.00;99.90
35645;DHT22;21764;52.042;6.830;2023-08-31T05:39:56;14.10;99.90
35645;DHT22;21764;52.042;6.830;2023-08-31T05:45:10;14.10;99.90
35645;DHT22;21764;52.042;6.830;2023-08-31T05:50:11;13.70;99.90
35645;DHT22;21764;52.042;6.830;2023-08-31T05:55:12;13.40;99.90
35645;DHT22;21764;52.042;6.830;2023-08-31T06:00:15;13.70;99.90
35645;DHT22;21764;52.042;6.830;2023-08-31T06:05:19;14.70;99.90
35645;DHT22;21764;52.042;6.830;2023-08-31T06:10:20;15.80;99.90
35645;DHT22;21764;52.042;6.830;2023-08-31T06:15:23;15.00;99.90
35645;DHT22;21764;52.042;6.830;2023-08-31T06:20:24;14.50;99.90
35645;DHT22;21764;52.042;6.830;2023-08-31T06:25:25;14.50;99.90
35645;DHT22;21764;52.042;6.830;2023-08-31T06:30:25;15.00;99.90
35645;DHT22;21764;52.042;6.830;2023-08-31T06:35:26;18.10;99.90
35645;DHT22;21764;52.042;6.830;2023-08-31T06:40:27;16.50;99.90
35645;DHT22;21764;52.042;6.830;2023-08-31T06:45:28;16.00;99.90
35645;DHT22;21764;52.042;6.830;2023-08-31T06:50:29;16.70;99.90
35645;DHT22;21764;52.042;6.830;2023-08-31T06:55:30;16.60;99.90
35645;DHT22;21764;52.042;6.830;2023-08-31T07:00:32;17.40;99.90
35645;DHT22;21764;52.042;6.830;2023-08-31T07:05:34;20.40;97.70
35645;DHT22;21764;52.042;6.830;2023-08-31T07:10:37;19.40;97.50
35645;DHT22;21764;52.042;6.830;2023-08-31T07:15:38;21.70;95.40
35645;DHT22;21764;52.042;6.830;2023-08-31T07:20:38;22.00;92.80
35645;DHT22;21764;52.042;6.830;2023-08-31T07:25:39;20.80;92.90
35645;DHT22;21764;52.042;6.830;2023-08-31T07:30:40;19.50;95.00
35645;DHT22;21764;52.042;6.830;2023-08-31T07:35:41;21.50;93.30
35645;DHT22;21764;52.042;6.830;2023-08-31T07:40:41;24.10;89.10
35645;DHT22;21764;52.042;6.830;2023-08-31T07:45:55;22.70;88.10
35645;DHT22;21764;52.042;6.830;2023-08-31T07:50:56;22.50;88.70
35645;DHT22;21764;52.042;6.830;2023-08-31T07:55:57;22.90;87.80
35645;DHT22;21764;52.042;6.830;2023-08-31T08:00:57;21.90;89.40
35645;DHT22;21764;52.042;6.830;2023-08-31T08:05:59;20.60;91.10
35645;DHT22;21764;52.042;6.830;2023-08-31T08:10:59;19.70;92.60
35645;DHT22;21764;52.042;6.830;2023-08-31T08:16:00;21.60;91.90
35645;DHT22;21764;52.042;6.830;2023-08-31T08:21:01;29.70;72.30
35645;DHT22;21764;52.042;6.830;2023-08-31T08:26:02;37.00;56.60
35645;DHT22;21764;52.042;6.830;2023-08-31T08:31:02;38.60;50.10
35645;DHT22;21764;52.042;6.830;2023-08-31T08:36:03;32.90;52.60
35645;DHT22;21764;52.042;6.830;2023-08-31T08:41:05;36.60;51.40
35645;DHT22;21764;52.042;6.830;2023-08-31T08:46:08;36.10;48.50
35645;DHT22;21764;52.042;6.830;2023-08-31T08:51:10;35.00;48.70
35645;DHT22;21764;52.042;6.830;2023-08-31T08:56:11;35.50;50.20
35645;DHT22;21764;52.042;6.830;2023-08-31T09:01:12;36.10;49.40
35645;DHT22;21764;52.042;6.830;2023-08-31T09:06:12;37.20;47.60
35645;DHT22;21764;52.042;6.830;2023-08-31T09:11:20;36.20;48.90
35645;DHT22;21764;52.042;6.830;2023-08-31T09:16:28;35.60;49.10
35645;DHT22;21764;52.042;6.830;2023-08-31T09:21:39;34.30;50.80
35645;DHT22;21764;52.042;6.830;2023-08-31T09:26:45;33.60;50.40
35645;DHT22;21764;52.042;6.830;2023-08-31T09:31:49;31.30;52.20
35645;DHT22;21764;52.042;6.830;2023-08-31T09:36:50;27.70;58.30
35645;DHT22;21764;52.042;6.830;2023-08-31T09:41:54;31.50;55.50
35645;DHT22;21764;52.042;6.830;2023-08-31T09:46:56;34.80;50.00
35645;DHT22;21764;52.042;6.830;2023-08-31T09:52:03;34.80;48.70
35645;DHT22;21764;52.042;6.830;2023-08-31T09:57:05;32.30;50.80
35645;DHT22;21764;52.042;6.830;2023-08-31T10:02:06;27.80;58.40
35645;DHT22;21764;52.042;6.830;2023-08-31T10:07:16;24.80;65.70
35645;DHT22;21764;52.042;6.830;2023-08-31T10:12:18;22.90;73.90
35645;DHT22;21764;52.042;6.830;2023-08-31T10:17:20;23.50;77.30
35645;DHT22;21764;52.042;6.830;2023-08-31T10:22:21;25.20;70.60
35645;DHT22;21764;52.042;6.830;2023-08-31T10:27:22;23.80;69.50
35645;DHT22;21764;52.042;6.830;2023-08-31T10:32:25;22.90;73.20
35645;DHT22;21764;52.042;6.830;2023-08-31T10:37:27;22.60;75.30
35645;DHT22;21764;52.042;6.830;2023-08-31T10:42:28;22.60;75.50
35645;DHT22;21764;52.042;6.830;2023-08-31T10:47:40;23.40;75.00
35645;DHT22;21764;52.042;6.830;2023-08-31T10:52:44;24.50;71.90
35645;DHT22;21764;52.042;6.830;2023-08-31T10:57:46;25.30;68.30
35645;DHT22;21764;52.042;6.830;2023-08-31T11:02:47;25.50;68.20
35645;DHT22;21764;52.042;6.830;2023-08-31T11:07:50;25.70;67.40
35645;DHT22;21764;52.042;6.830;2023-08-31T11:12:54;25.40;67.00
35645;DHT22;21764;52.042;6.830;2023-08-31T11:17:56;24.60;67.50
35645;DHT22;21764;52.042;6.830;2023-08-31T11:22:57;24.20;69.80
35645;DHT22;21764;52.042;6.830;2023-08-31T11:28:00;24.00;66.30
35645;DHT22;21764;52.042;6.830;2023-08-31T11:33:03;23.30;68.20
35645;DHT22;21764;52.042;6.830;2023-08-31T11:38:04;22.10;75.80
35645;DHT22;21764;52.042;6.830;2023-08-31T11:43:06;21.20;79.70
35645;DHT22;21764;52.042;6.830;2023-08-31T11:48:08;20.20;86.30
35645;DHT22;21764;52.042;6.830;2023-08-31T11:53:09;19.60;89.10
35645;DHT22;21764;52.042;6.830;2023-08-31T11:58:10;20.50;88.50
35645;DHT22;21764;52.042;6.830;2023-08-31T12:03:11;20.90;85.40
35645;DHT22;21764;52.042;6.830;2023-08-31T12:08:12;21.00;84.90
35645;DHT22;21764;52.042;6.830;2023-08-31T12:13:13;21.20;83.80
35645;DHT22;21764;52.042;6.830;2023-08-31T12:18:14;21.60;81.60
35645;DHT22;21764;52.042;6.830;2023-08-31T12:23:15;21.70;82.00
35645;DHT22;21764;52.042;6.830;2023-08-31T12:28:20;21.30;79.40
35645;DHT22;21764;52.042;6.830;2023-08-31T12:33:21;21.10;80.70
35645;DHT22;21764;52.042;6.830;2023-08-31T12:38:22;20.80;80.50
35645;DHT22;21764;52.042;6.830;2023-08-31T12:43:23;21.30;82.50
35645;DHT22;21764;52.042;6.830;2023-08-31T12:48:23;21.80;80.50
35645;DHT22;21764;52.042;6.830;2023-08-31T12:53:24;22.30;79.80
35645;DHT22;21764;52.042;6.830;2023-08-31T12:58:25;22.60;77.10
35645;DHT22;21764;52.042;6.830;2023-08-31T13:03:26;22.30;74.30
35645;DHT22;21764;52.042;6.830;2023-08-31T13:08:27;21.50;77.10
35645;DHT22;21764;52.042;6.830;2023-08-31T13:13:28;21.50;79.00
35645;DHT22;21764;52.042;6.830;2023-08-31T13:18:29;21.40;78.30
35645;DHT22;21764;52.042;6.830;2023-08-31T13:23:29;21.50;77.80
35645;DHT22;21764;52.042;6.830;2023-08-31T13:28:30;21.80;79.40
35645;DHT22;21764;52.042;6.830;2023-08-31T13:33:31;22.20;76.50
35645;DHT22;21764;52.042;6.830;2023-08-31T13:38:32;22.20;76.60
35645;DHT22;21764;52.042;6.830;2023-08-31T13:43:32;22.70;77.90
35645;DHT22;21764;52.042;6.830;2023-08-31T13:48:33;22.90;76.60
35645;DHT22;21764;52.042;6.830;2023-08-31T13:53:34;22.30;78.00
35645;DHT22;21764;52.042;6.830;2023-08-31T13:58:34;22.50;79.30
35645;DHT22;21764;52.042;6.830;2023-08-31T14:03:35;22.40;77.90
35645;DHT22;21764;52.042;6.830;2023-08-31T14:08:36;22.10;80.30
35645;DHT22;21764;52.042;6.830;2023-08-31T14:13:37;21.80;81.10
35645;DHT22;21764;52.042;6.830;2023-08-31T14:18:39;21.70;82.10
35645;DHT22;21764;52.042;6.830;2023-08-31T14:23:40;21.90;77.20
35645;DHT22;21764;52.042;6.830;2023-08-31T14:28:41;22.30;75.10
35645;DHT22;21764;52.042;6.830;2023-08-31T14:33:42;22.20;75.60
35645;DHT22;21764;52.042;6.830;2023-08-31T14:38:43;21.90;76.70
35645;DHT22;21764;52.042;6.830;2023-08-31T14:43:45;21.90;76.30
35645;DHT22;21764;52.042;6.830;2023-08-31T14:48:46;22.00;76.10
35645;DHT22;21764;52.042;6.830;2023-08-31T14:53:47;22.20;73.70
35645;DHT22;21764;52.042;6.830;2023-08-31T14:58:47;22.40;70.10
35645;DHT22;21764;52.042;6.830;2023-08-31T15:03:48;22.60;71.40
35645;DHT22;21764;52.042;6.830;2023-08-31T15:08:49;22.50;68.70
35645;DHT22;21764;52.042;6.830;2023-08-31T15:13:50;22.30;70.00
35645;DHT22;21764;52.042;6.830;2023-08-31T15:18:50;22.20;67.80
35645;DHT22;21764;52.042;6.830;2023-08-31T15:23:51;21.90;68.00
35645;DHT22;21764;52.042;6.830;2023-08-31T15:28:53;21.70;69.40
35645;DHT22;21764;52.042;6.830;2023-08-31T15:33:54;21.60;69.00
35645;DHT22;21764;52.042;6.830;2023-08-31T15:38:55;21.60;70.20
35645;DHT22;21764;52.042;6.830;2023-08-31T15:43:55;21.50;70.30
35645;DHT22;21764;52.042;6.830;2023-08-31T15:48:56;21.40;71.50
35645;DHT22;21764;52.042;6.830;2023-08-31T15:53:57;21.50;71.30
35645;DHT22;21764;52.042;6.830;2023-08-31T15:58:58;21.60;73.20
35645;DHT22;21764;52.042;6.830;2023-08-31T16:03:59;21.50;77.20
35645;DHT22;21764;52.042;6.830;2023-08-31T16:08:59;21.60;79.10
35645;DHT22;21764;52.042;6.830;2023-08-31T16:14:00;21.50;79.00
35645;DHT22;21764;52.042;6.830;2023-08-31T16:19:01;21.10;80.10
35645;DHT22;21764;52.042;6.830;2023-08-31T16:24:02;21.00;81.20
35645;DHT22;21764;52.042;6.830;2023-08-31T16:29:03;20.90;81.60
35645;DHT22;21764;52.042;6.830;2023-08-31T16:34:05;20.80;81.80
35645;DHT22;21764;52.042;6.830;2023-08-31T16:39:06;20.80;82.70
35645;DHT22;21764;52.042;6.830;2023-08-31T16:44:06;20.50;83.60
35645;DHT22;21764;52.042;6.830;2023-08-31T16:49:07;20.20;84.70
35645;DHT22;21764;52.042;6.830;2023-08-31T16:54:10;20.00;85.00
35645;DHT22;21764;52.042;6.830;2023-08-31T16:59:12;19.90;85.90
35645;DHT22;21764;52.042;6.830;2023-08-31T17:04:13;19.80;87.80
35645;DHT22;21764;52.042;6.830;2023-08-31T17:09:13;19.60;86.80
35645;DHT22;21764;52.042;6.830;2023-08-31T17:14:14;19.50;87.80
35645;DHT22;21764;52.042;6.830;2023-08-31T17:19:15;19.30;88.80
35645;DHT22;21764;52.042;6.830;2023-08-31T17:24:16;19.10;89.50
35645;DHT22;21764;52.042;6.830;2023-08-31T17:29:17;19.00;90.20
35645;DHT22;21764;52.042;6.830;2023-08-31T17:34:18;18.90;90.60
35645;DHT22;21764;52.042;6.830;2023-08-31T17:39:21;18.70;91.00
35645;DHT22;21764;52.042;6.830;2023-08-31T17:44:22;18.50;91.20
35645;DHT22;21764;52.042;6.830;2023-08-31T17:49:25;18.40;91.80
35645;DHT22;21764;52.042;6.830;2023-08-31T17:54:25;18.20;92.30
35645;DHT22;21764;52.042;6.830;2023-08-31T17:59:27;18.10;92.80
35645;DHT22;21764;52.042;6.830;2023-08-31T18:04:27;17.90;93.20
35645;DHT22;21764;52.042;6.830;2023-08-31T18:09:28;17.70;93.70
35645;DHT22;21764;52.042;6.830;2023-08-31T18:14:32;17.50;94.30
35645;DHT22;21764;52.042;6.830;2023-08-31T18:19:34;17.30;94.50
35645;DHT22;21764;52.042;6.830;2023-08-31T18:24:36;17.20;95.10
35645;DHT22;21764;52.042;6.830;2023-08-31T18:29:37;17.00;95.80
35645;DHT22;21764;52.042;6.830;2023-08-31T18:34:38;16.90;96.30
35645;DHT22;21764;52.042;6.830;2023-08-31T18:39:40;16.70;96.80
35645;DHT22;21764;52.042;6.830;2023-08-31T18:44:40;16.60;97.20
35645;DHT22;21764;52.042;6.830;2023-08-31T18:49:41;16.60;97.60
35645;DHT22;21764;52.042;6.830;2023-08-31T18:54:42;16.60;97.80
35645;DHT22;21764;52.042;6.830;2023-08-31T18:59:43;16.60;98.00
35645;DHT22;21764;52.042;6.830;2023-08-31T19:04:44;16.50;98.20
35645;DHT22;21764;52.042;6.830;2023-08-31T19:09:44;16.50;98.60
35645;DHT22;21764;52.042;6.830;2023-08-31T19:14:45;16.50;98.80
35645;DHT22;21764;52.042;6.830;2023-08-31T19:19:46;16.40;99.10
35645;DHT22;21764;52.042;6.830;2023-08-31T19:24:47;16.40;99.60
35645;DHT22;21764;52.042;6.830;2023-08-31T19:29:47;16.30;99.90
35645;DHT22;21764;52.042;6.830;2023-08-31T19:34:48;16.30;99.90
35645;DHT22;21764;52.042;6.830;2023-08-31T19:39:49;16.20;99.90
35645;DHT22;21764;52.042;6.830;2023-08-31T19:44:50;16.10;99.90
35645;DHT22;21764;52.042;6.830;2023-08-31T19:49:50;15.90;99.90
35645;DHT22;21764;52.042;6.830;2023-08-31T19:54:51;15.80;99.90
35645;DHT22;21764;52.042;6.830;2023-08-31T19:59:53;15.60;99.90
35645;DHT22;21764;52.042;6.830;2023-08-31T20:04:54;15.50;99.90
35645;DHT22;21764;52.042;6.830;2023-08-31T20:09:55;15.40;99.90
35645;DHT22;21764;52.042;6.830;2023-08-31T20:14:56;15.40;99.90
35645;DHT22;21764;52.042;6.830;2023-08-31T20:19:57;15.40;99.90
35645;DHT22;21764;52.042;6.830;2023-08-31T20:24:57;15.30;99.90
35645;DHT22;21764;52.042;6.830;2023-08-31T20:29:58;15.20;99.90
35645;DHT22;21764;52.042;6.830;2023-08-31T20:34:59;15.10;99.90
35645;DHT22;21764;52.042;6.830;2023-08-31T20:45:39;14.90;99.90
35645;DHT22;21764;52.042;6.830;2023-08-31T20:50:40;14.60;99.90
35645;DHT22;21764;52.042;6.830;2023-08-31T20:55:41;14.50;99.90
35645;DHT22;21764;52.042;6.830;2023-08-31T21:00:42;14.50;99.90
35645;DHT22;21764;52.042;6.830;2023-08-31T21:05:42;14.40;99.90
35645;DHT22;21764;52.042;6.830;2023-08-31T21:10:43;14.40;99.90
35645;DHT22;21764;52.042;6.830;2023-08-31T21:15:45;14.40;99.90
35645;DHT22;21764;52.042;6.830;2023-08-31T21:20:45;14.30;99.90
35645;DHT22;21764;52.042;6.830;2023-08-31T21:25:46;14.20;99.90
35645;DHT22;21764;52.042;6.830;2023-08-31T21:30:49;14.20;99.90
35645;DHT22;21764;52.042;6.830;2023-08-31T21:35:50;14.20;99.90
35645;DHT22;21764;52.042;6.830;2023-08-31T21:40:51;14.20;99.90
35645;DHT22;21764;52.042;6.830;2023-08-31T21:45:52;14.10;99.90
35645;DHT22;21764;52.042;6.830;2023-08-31T21:50:53;14.10;99.90
35645;DHT22;21764;52.042;6.830;2023-08-31T21:55:53;14.10;99.90
35645;DHT22;21764;52.042;6.830;2023-08-31T22:00:54;14.10;99.90
35645;DHT22;21764;52.042;6.830;2023-08-31T22:05:55;14.10;99.90
35645;DHT22;21764;52.042;6.830;2023-08-31T22:11:03;14.10;99.90
35645;DHT22;21764;52.042;6.830;2023-08-31T22:16:04;14.00;99.90
35645;DHT22;21764;52.042;6.830;2023-08-31T22:21:05;14.00;99.90
35645;DHT22;21764;52.042;6.830;2023-08-31T22:26:06;13.90;99.90
35645;DHT22;21764;52.042;6.830;2023-08-31T22:31:07;13.90;99.90
35645;DHT22;21764;52.042;6.830;2023-08-31T22:36:08;14.00;99.90
35645;DHT22;21764;52.042;6.830;2023-08-31T22:41:08;14.00;99.90
35645;DHT22;21764;52.042;6.830;2023-08-31T22:46:09;14.10;99.90
35645;DHT22;21764;52.042;6.830;2023-08-31T22:51:10;14.10;99.90
35645;DHT22;21764;52.042;6.830;2023-08-31T22:56:11;14.10;99.90
35645;DHT22;21764;52.042;6.830;2023-08-31T23:01:11;14.10;99.90
35645;DHT22;21764;52.042;6.830;2023-08-31T23:06:12;14.10;99.90
35645;DHT22;21764;52.042;6.830;2023-08-31T23:11:13;14.00;99.90
35645;DHT22;21764;52.042;6.830;2023-08-31T23:16:14;14.00;99.90
35645;DHT22;21764;52.042;6.830;2023-08-31T23:21:14;14.00;99.90
35645;DHT22;21764;52.042;6.830;2023-08-31T23:26:15;14.00;99.90
35645;DHT22;21764;52.042;6.830;2023-08-31T23:31:16;14.00;99.90
35645;DHT22;21764;52.042;6.830;2023-08-31T23:36:18;14.00;99.90
35645;DHT22;21764;52.042;6.830;2023-08-31T23:41:20;14.00;99.90
35645;DHT22;21764;52.042;6.830;2023-08-31T23:46:20;14.00;99.90
35645;DHT22;21764;52.042;6.830;2023-08-31T23:51:21;13.90;99.90
35645;DHT22;21764;52.042;6.830;2023-08-31T23:56:22;13.90;99.90
